Port Arthur, Texas
Current Conditions -  °F | °C
As of 3:53 PM on Monday 24 Nov 2014 (Local Time) from KBPT Reporting Station
Clear Clear  
Wind Chill: 64°   Ceiling: Unl
Heat Index: 64°   Visibility: 10mi
Dew Point: 36°   Wind: 18mph
Humidity: 35%   Direction: 340°NNW
Pressure: 29.99"   Gusts: NA
Location:  29.9°N, 93.93°W
Report Text: KBPT 242153Z AUTO 34016KT 10SM CLR 18/02 A2999 RMK AO2 SLP155 T01780022
Loading
Personal Weather Stations






























Interactive Weather Map New forecast layout! Learn more

10-Day Weather Forecast

Advertisements
Track Severe Weather on mobile